Time;durP1;ratioP1;P1;durP2;ratioP2;P2;SDS_P1;SDS_P2;PMS_P1;PMS_P2;Temp;Humidity;BMP_temperature;BMP_pressure;BME280_temperature;BME280_humidity;BME280_pressure;Samples;Min_cycle;Max_cycle;Signal;HPM_P1;HPM_P2
2023/06/01 00:00:55;;;;;;;2.70;1.53;;;14.60;99.90;;;;;;5091670;28;20494;-66
2023/06/01 00:03:22;;;;;;;3.90;1.90;;;14.50;99.90;;;;;;5091088;28;20838;-64
2023/06/01 00:05:49;;;;;;;2.70;1.47;;;14.60;99.90;;;;;;5091342;28;20444;-64
2023/06/01 00:08:16;;;;;;;3.47;1.50;;;14.30;99.90;;;;;;5090759;28;20471;-64
2023/06/01 00:10:43;;;;;;;2.50;1.40;;;14.20;99.90;;;;;;5090654;28;20818;-64
2023/06/01 00:13:11;;;;;;;2.83;1.60;;;;;;;;;;5090985;28;20940;-64
2023/06/01 00:15:39;;;;;;;2.13;1.77;;;;;;;;;;5090749;28;20878;-64
2023/06/01 00:18:08;;;;;;;2.43;1.70;;;;;;;;;;5090673;28;20480;-64
2023/06/01 00:20:35;;;;;;;3.83;2.00;;;;;;;;;;5090608;28;20487;-64
2023/06/01 00:23:03;;;;;;;3.53;2.47;;;;;;;;;;5091290;28;20483;-66
2023/06/01 00:25:30;;;;;;;2.23;1.30;;;;;;;;;;5090581;28;20529;-64
2023/06/01 00:27:57;;;;;;;4.47;2.10;;;;;;;;;;5090663;28;20468;-64
2023/06/01 00:30:26;;;;;;;2.70;1.53;;;;;;;;;;5090363;28;20448;-64
2023/06/01 00:32:53;;;;;;;4.43;1.80;;;;;;;;;;5091279;28;20449;-64
2023/06/01 00:35:20;;;;;;;3.00;1.70;;;;;;;;;;5090640;28;20440;-65
2023/06/01 00:37:47;;;;;;;2.07;1.17;;;;;;;;;;5090796;28;20448;-64
2023/06/01 00:40:14;;;;;;;2.50;2.13;;;;;;;;;;5090984;28;20484;-65
2023/06/01 00:42:41;;;;;;;2.73;1.53;;;;;;;;;;5090154;28;20510;-65
2023/06/01 00:45:08;;;;;;;2.70;1.30;;;;;;;;;;5090971;28;20447;-65
2023/06/01 00:47:40;;;;;;;2.97;1.40;;;;;;;;;;5090070;28;20448;-65
2023/06/01 00:50:08;;;;;;;1.80;1.40;;;;;;;;;;5094291;28;20935;-65
2023/06/01 00:52:35;;;;;;;2.73;1.23;;;;;;;;;;5094486;28;20441;-65
2023/06/01 00:55:03;;;;;;;4.00;2.40;;;;;;;;;;5095106;28;20452;-65
2023/06/01 00:57:30;;;;;;;2.07;1.40;;;;;;;;;;5094040;28;20458;-66
2023/06/01 00:59:58;;;;;;;4.50;1.30;;;;;;;;;;5094856;28;20962;-64
2023/06/01 01:02:25;;;;;;;2.13;1.80;;;;;;;;;;5094424;28;20553;-64
2023/06/01 01:04:55;;;;;;;2.47;1.23;;;;;;;;;;5095187;28;20448;-64
2023/06/01 01:07:26;;;;;;;3.13;1.47;;;;;;;;;;5093957;28;20951;-64
2023/06/01 01:09:58;;;;;;;2.70;2.17;;;;;;;;;;5095726;28;20452;-64
2023/06/01 01:12:28;;;;;;;1.80;1.33;;;;;;;;;;5094299;28;20447;-65
2023/06/01 01:14:58;;;;;;;2.30;1.60;;;;;;;;;;5094988;28;20450;-64
2023/06/01 01:17:30;;;;;;;3.43;1.60;;;;;;;;;;5093498;28;21209;-64
2023/06/01 01:20:00;;;;;;;3.00;1.90;;;;;;;;;;5094321;28;20473;-64
2023/06/01 01:22:36;;;;;;;2.80;2.03;;;;;;;;;;5093703;28;20455;-64
2023/06/01 01:25:12;;;;;;;3.20;1.57;;;;;;;;;;5094279;28;20928;-65
2023/06/01 01:27:41;;;;;;;2.10;1.77;;;;;;;;;;5093350;28;20505;-64
2023/06/01 01:30:09;;;;;;;2.37;1.70;;;;;;;;;;5094035;28;20954;-65
2023/06/01 01:32:36;;;;;;;2.80;1.73;;;;;;;;;;5093463;28;20509;-65
2023/06/01 01:35:05;;;;;;;2.77;1.77;;;;;;;;;;5094023;28;20962;-65
2023/06/01 01:37:33;;;;;;;2.07;1.47;;;;;;;;;;5093263;28;20490;-65
2023/06/01 01:40:01;;;;;;;2.60;1.53;;;;;;;;;;5093845;28;20480;-65
2023/06/01 01:42:28;;;;;;;2.70;1.80;;;;;;;;;;5093763;28;20456;-65
2023/06/01 01:44:55;;;;;;;2.60;1.90;;;;;;;;;;5094243;28;20441;-64
2023/06/01 01:47:29;;;;;;;3.67;2.13;;;;;;;;;;5093334;28;20456;-65
2023/06/01 01:49:59;;;;;;;4.53;1.83;;;;;;;;;;5094362;28;20463;-64
2023/06/01 01:52:29;;;;;;;2.80;1.83;;;;;;;;;;5093602;28;20444;-65
2023/06/01 01:54:57;;;;;;;2.20;1.50;;;;;;;;;;5094178;28;20448;-64
2023/06/01 01:57:24;;;;;;;5.77;2.10;;;;;;;;;;5092766;28;20453;-65
2023/06/01 01:59:52;;;;;;;2.83;2.00;;;;;;;;;;5092910;28;21013;-65
2023/06/01 02:02:19;;;;;;;3.10;1.77;;;;;;;;;;5093279;28;20449;-64
2023/06/01 02:04:47;;;;;;;3.93;1.57;;;;;;;;;;5093027;28;20473;-64
2023/06/01 02:07:15;;;;;;;2.73;2.17;;;;;;;;;;5092810;28;20453;-65
2023/06/01 02:09:43;;;;;;;2.50;1.70;;;;;;;;;;5093091;28;20448;-65
2023/06/01 02:12:10;;;;;;;1.30;0.90;;;;;;;;;;5093150;28;20444;-64
2023/06/01 02:14:37;;;;;;;3.47;2.07;;;;;;;;;;5092967;28;20448;-64
2023/06/01 02:17:05;;;;;;;4.93;2.10;;;;;;;;;;5092918;28;20445;-64
2023/06/01 02:19:32;;;;;;;2.60;1.40;;;;;;;;;;5092932;28;20452;-65
2023/06/01 02:22:01;;;;;;;4.73;1.57;;;;;;;;;;5093381;28;20456;-65
2023/06/01 02:24:28;;;;;;;3.47;2.00;;;;;;;;;;5092843;28;20821;-65
2023/06/01 02:26:55;;;;;;;4.50;1.50;;;;;;;;;;5092802;28;20480;-65
2023/06/01 02:29:23;;;;;;;2.03;1.20;;;;;;;;;;5093256;28;21000;-66
2023/06/01 02:31:50;;;;;;;2.20;1.23;;;;;;;;;;5092828;28;20931;-65
2023/06/01 02:34:17;;;;;;;2.83;1.70;;;;;;;;;;5093190;28;20937;-65
2023/06/01 02:36:45;;;;;;;2.53;1.53;;;;;;;;;;5092133;28;20441;-64
2023/06/01 02:39:13;;;;;;;2.37;1.67;;;;;;;;;;5092775;28;20540;-65
2023/06/01 02:41:40;;;;;;;2.33;1.40;;;;;;;;;;5092380;28;20483;-65
2023/06/01 02:44:07;;;;;;;2.10;1.27;;;;;;;;;;5092703;28;20924;-65
2023/06/01 02:46:35;;;;;;;3.10;1.80;;;;;;;;;;5091858;28;20467;-64
2023/06/01 02:49:03;;;;;;;2.63;1.70;;;;;;;;;;5092663;28;20449;-65
2023/06/01 02:51:31;;;;;;;2.57;1.50;;;;;;;;;;5092387;28;20564;-65
2023/06/01 02:53:58;;;;;;;2.00;1.30;;;;;;;;;;5092924;28;20501;-64
2023/06/01 02:56:27;;;;;;;3.53;2.00;;;;;;;;;;5091777;28;20461;-64
2023/06/01 02:58:54;;;;;;;2.00;1.47;;;;;;;;;;5092897;28;20440;-64
2023/06/01 03:01:21;;;;;;;2.33;1.40;;;;;;;;;;5092570;28;20480;-64
2023/06/01 03:03:52;;;;;;;1.90;1.40;;;;;;;;;;5092327;28;20995;-64
2023/06/01 03:06:21;;;;;;;7.80;2.83;;;;;;;;;;5092161;28;20535;-64
2023/06/01 03:08:48;;;;;;;3.10;2.07;;;;;;;;;;5091888;28;20479;-64
2023/06/01 03:11:15;;;;;;;2.67;1.37;;;;;;;;;;5091599;28;20445;-64
2023/06/01 03:13:44;;;;;;;2.40;1.57;;;;;;;;;;5091356;28;20452;-65
2023/06/01 03:16:11;;;;;;;2.07;1.43;;;;;;;;;;5092043;28;20451;-65
2023/06/01 03:18:38;;;;;;;5.80;1.90;;;;;;;;;;5091537;28;20819;-65
2023/06/01 03:21:05;;;;;;;4.00;1.20;;;;;;;;;;5092262;28;20503;-64
2023/06/01 03:23:32;;;;;;;2.63;1.43;;;;;;;;;;5091646;28;20451;-66
2023/06/01 03:25:59;;;;;;;2.67;1.50;;;;;;;;;;5092194;28;20455;-65
2023/06/01 03:28:26;;;;;;;4.90;2.53;;;;;;;;;;5091446;28;20532;-65
2023/06/01 03:30:55;;;;;;;3.63;1.27;;;;;;;;;;5092286;28;20452;-64
2023/06/01 03:33:23;;;;;;;3.23;1.80;;;;;;;;;;5091967;28;20811;-65
2023/06/01 03:35:50;;;;;;;4.40;1.57;;;;;;;;;;5091660;28;20531;-64
2023/06/01 03:38:17;;;;;;;2.33;1.40;;;;;;;;;;5091389;28;20456;-65
2023/06/01 03:40:44;;;;;;;2.50;1.57;;;;;;;;;;5091199;28;20778;-64
2023/06/01 03:43:12;;;;;;;2.40;1.70;;;;;;;;;;5091460;28;20979;-64
2023/06/01 03:45:39;;;;;;;3.13;2.07;;;;;;;;;;5091267;28;20849;-65
2023/06/01 03:48:08;;;;;;;1.70;1.50;;;;;;;;;;5091343;28;20444;-65
2023/06/01 03:50:35;;;;;;;7.10;1.47;;;;;;;;;;5091025;28;20464;-65
2023/06/01 03:53:02;;;;;;;4.23;1.80;;;;;;;;;;5091611;28;20445;-65
2023/06/01 03:55:30;;;;;;;6.40;2.33;;;;;;;;;;5090679;28;20452;-65
2023/06/01 03:57:57;;;;;;;2.13;1.40;;;;;;;;;;5090765;28;20449;-65
2023/06/01 04:00:25;;;;;;;1.73;1.20;;;;;;;;;;5091646;28;20880;-64
2023/06/01 04:02:53;;;;;;;2.60;1.90;;;;;;;;;;5091668;28;20449;-64
2023/06/01 04:05:21;;;;;;;3.50;1.87;;;;;;;;;;5091156;28;20447;-64
2023/06/01 04:07:49;;;;;;;2.00;1.40;;;;;;;;;;5090205;28;20969;-64
2023/06/01 04:10:16;;;;;;;2.90;1.53;;;;;;;;;;5091364;28;20459;-65
2023/06/01 04:12:43;;;;;;;2.20;1.27;;;;;;;;;;5090554;28;20958;-64
2023/06/01 04:15:11;;;;;;;2.80;1.83;;;;;;;;;;5090962;28;20452;-64
2023/06/01 04:17:39;;;;;;;3.93;1.63;;;;;;;;;;5090322;28;20440;-64
2023/06/01 04:20:06;;;;;;;7.00;1.87;;;;;;;;;;5091247;28;20476;-64
2023/06/01 04:22:35;;;;;;;3.30;1.63;;;;;;;;;;5090325;28;20932;-65
2023/06/01 04:25:02;;;;;;;2.00;1.40;;;;;;;;;;5091484;28;20449;-65
2023/06/01 04:27:29;;;;;;;5.60;1.97;;;;;;;;;;5089801;28;20476;-64
2023/06/01 04:29:58;;;;;;;2.67;1.47;;;;;;;;;;5091240;28;20472;-64
2023/06/01 04:32:27;;;;;;;1.70;1.40;;;;;;;;;;5091021;28;20444;-64
2023/06/01 04:34:56;;;;;;;3.37;1.63;;;;;;;;;;5091368;28;20436;-64
2023/06/01 04:37:24;;;;;;;2.30;1.20;;;;;;;;;;5090554;28;20444;-64
2023/06/01 04:39:53;;;;;;;2.30;1.60;;;;;;;;;;5091126;28;20494;-64
2023/06/01 04:42:21;;;;;;;2.67;2.07;;;;;;;;;;5091047;28;20507;-64
2023/06/01 04:44:49;;;;;;;3.63;1.60;;;;;;;;;;5090205;28;20460;-64
2023/06/01 04:47:17;;;;;;;2.73;1.30;;;;;;;;;;5090844;28;20448;-64
2023/06/01 04:49:44;;;;;;;2.40;1.40;;;;;;;;;;5090441;28;20448;-65
2023/06/01 04:52:12;;;;;;;3.27;1.70;;;;;;;;;;5091078;28;20452;-65
2023/06/01 04:54:39;;;;;;;3.97;1.50;;;;;;;;;;5090427;28;20460;-64
2023/06/01 04:57:08;;;;;;;3.13;1.70;;;;;;;;;;5090655;28;20530;-64
2023/06/01 04:59:36;;;;;;;2.60;1.67;;;;;;;;;;5090336;28;20441;-65
2023/06/01 05:02:03;;;;;;;2.60;1.67;;;;;;;;;;5090931;28;21048;-64
2023/06/01 05:04:30;;;;;;;2.60;1.63;;;;;;;;;;5090456;28;20444;-64
2023/06/01 05:06:57;;;;;;;2.10;1.17;;;;;;;;;;5090763;28;20444;-64
2023/06/01 05:09:25;;;;;;;5.67;1.90;;;;;;;;;;5091070;28;20886;-64
2023/06/01 05:11:52;;;;;;;3.90;2.10;;;;;;;;;;5090718;28;20531;-66
2023/06/01 05:14:20;;;;;;;1.93;1.60;;;;;;;;;;5090753;28;20457;-65
2023/06/01 05:16:48;;;;;;;3.87;2.10;;;;;;;;;;5089914;28;20460;-66
2023/06/01 05:19:15;;;;;;;2.70;1.40;;;;;;;;;;5090521;28;20485;-65
2023/06/01 05:21:43;;;;;;;1.93;1.47;;;;;;;;;;5090119;28;20487;-65
2023/06/01 05:24:10;;;;;;;2.73;1.80;;;;;;;;;;5090827;28;20495;-65
2023/06/01 05:26:37;;;;;;;3.13;1.40;;;;;;;;;;5089183;28;20480;-65
2023/06/01 05:29:04;;;;;;;3.83;1.50;;;;;;;;;;5090519;28;20809;-65
2023/06/01 05:31:33;;;;;;;3.10;1.80;;;;;;;;;;5090128;28;20456;-66
2023/06/01 05:34:00;;;;;;;3.90;1.80;;;;;;;;;;5090770;28;20498;-65
2023/06/01 05:36:27;;;;;;;2.17;1.77;;;;;;;;;;5093568;28;20455;-67
2023/06/01 05:38:54;;;;;;;3.40;2.13;;;;;;;;;;5094599;28;20452;-65
2023/06/01 05:41:21;;;;;;;3.30;1.80;;;;;;;;;;5094137;28;20567;-65
2023/06/01 05:43:50;;;;;;;5.13;1.80;;;;;;;;;;5093661;28;20456;-65
2023/06/01 05:46:17;;;;;;;4.13;2.00;;;;;;;;;;5093715;28;20547;-65
2023/06/01 05:48:46;;;;;;;3.20;1.77;;;;;;;;;;5093687;28;20475;-65
2023/06/01 05:51:13;;;;;;;3.03;1.20;;;;;;;;;;5094025;28;20452;-65
2023/06/01 05:53:40;;;;;;;1.67;1.37;;;;;;;;;;5093263;28;20456;-66
2023/06/01 05:56:07;;;;;;;3.40;1.93;;;;;;;;;;5093540;28;20448;-66
2023/06/01 05:58:34;;;;;;;3.50;1.43;;;;;;;;;;5093332;28;20448;-65
2023/06/01 06:01:02;;;;;;;2.27;1.50;;;;;;;;;;5093774;28;20476;-66
2023/06/01 06:03:29;;;;;;;3.47;2.00;;;;;;;;;;5093130;28;20455;-66
2023/06/01 06:05:57;;;;;;;4.13;2.37;;;;;;;;;;5093259;28;20449;-66
2023/06/01 06:08:24;;;;;;;4.07;2.33;;;;;;;;;;5093986;28;20456;-65
2023/06/01 06:10:51;;;;;;;3.30;1.37;;;;;;;;;;5092864;28;20972;-65
2023/06/01 06:13:18;;;;;;;4.43;1.97;;;;;;;;;;5093759;28;20452;-65
2023/06/01 06:15:46;;;;;;;2.23;1.33;;;;;;;;;;5092640;28;20448;-65
2023/06/01 06:18:13;;;;;;;3.03;1.63;;;;;;;;;;5093648;28;20464;-65
2023/06/01 06:20:40;;;;;;;3.73;2.17;;;;;;;;;;5092644;28;20453;-66
2023/06/01 06:23:09;;;;;;;3.30;1.57;;;;;;;;;;5093241;28;20971;-65
2023/06/01 06:25:39;;;;;;;6.50;2.30;;;;;;;;;;5092548;28;20539;-66
2023/06/01 06:28:06;;;;;;;3.13;1.77;;;;;;;;;;5093005;28;20472;-66
2023/06/01 06:30:34;;;;;;;2.90;1.87;;;;;;;;;;5092850;28;20441;-66
2023/06/01 06:33:01;;;;;;;2.80;1.90;;;;;;;;;;5092947;28;20448;-66
2023/06/01 06:35:28;;;;;;;2.47;1.50;;;;;;;;;;5092807;28;20452;-66
2023/06/01 06:37:55;;;;;;;3.27;1.90;;;;;;;;;;5092996;28;20445;-66
2023/06/01 06:40:24;;;;;;;2.93;1.93;;;;;;;;;;5093361;28;20445;-66
2023/06/01 06:42:51;;;;;;;3.70;1.40;;;;;;;;;;5092472;28;20487;-66
2023/06/01 06:45:18;;;;;;;3.00;1.70;;;;;;;;;;5093007;28;20536;-66
2023/06/01 06:47:46;;;;;;;1.70;1.27;;;;;;;;;;5091776;28;20452;-65
2023/06/01 06:50:13;;;;;;;4.07;1.60;;;;;;;;;;5093091;28;20444;-65
2023/06/01 06:52:40;;;;;;;2.50;1.60;;;;;;;;;;5091953;28;20454;-67
2023/06/01 06:55:08;;;;;;;2.70;1.50;;;;;;;;;;5092594;28;20958;-66
2023/06/01 06:57:38;;;;;;;2.10;1.60;;;;;;;;;;5090920;28;20464;-67
2023/06/01 07:00:06;;;;;;;2.63;1.50;;;;;;;;;;5092306;28;20503;-67
2023/06/01 07:02:33;;;;;;;3.73;1.73;;;;;;;;;;5091686;28;20488;-67
2023/06/01 07:05:00;;;;;;;2.73;1.80;;;;;;;;;;5091978;28;20448;-66
2023/06/01 07:07:28;;;;;;;2.37;1.80;;;;;;;;;;5091805;28;20814;-67
2023/06/01 07:09:55;;;;;;;3.00;1.60;;;;;;;;;;5092932;28;20440;-66
2023/06/01 07:12:22;;;;;;;2.37;2.10;;;;;;;;;;5092840;28;20904;-66
2023/06/01 07:14:50;;;;;;;2.27;1.80;;;;;;;;;;5091409;28;20460;-67
2023/06/01 07:17:17;;;;;;;3.20;2.10;;;;;;;;;;5091951;28;20449;-66
2023/06/01 07:19:45;;;;;;;3.80;1.70;;;;;;;;;;5091356;28;20448;-66
2023/06/01 07:22:12;;;;;;;2.77;2.03;;;;;;;;;;5092320;28;20512;-66
2023/06/01 07:24:39;;;;;;;2.43;1.63;;;;;;;;;;5090965;28;20449;-66
2023/06/01 07:27:07;;;;;;;3.83;1.90;;;;;;;;;;5091146;28;20528;-66
2023/06/01 07:29:34;;;;;;;2.40;1.70;;;;;;;;;;5091442;28;20477;-66
2023/06/01 07:32:03;;;;;;;2.20;1.47;;;;;;;;;;5091351;28;20456;-67
2023/06/01 07:34:30;;;;;;;3.77;2.70;;;;;;;;;;5091484;28;20449;-66
2023/06/01 07:36:58;;;;;;;2.40;1.47;;;;;;;;;;5091446;28;20448;-66
2023/06/01 07:39:25;;;;;;;1.80;1.43;;;;;;;;;;5091998;28;20563;-66
2023/06/01 07:41:53;;;;;;;3.23;1.90;;;;;;;;;;5091047;28;20507;-65
2023/06/01 07:44:20;;;;;;;3.23;1.73;;;;;;;;;;5091186;28;20444;-65
2023/06/01 07:46:48;;;;;;;4.10;2.10;;;;;;;;;;5090437;28;20472;-65
2023/06/01 07:49:17;;;;;;;2.03;1.43;;;;;;;;;;5091196;28;20951;-65
2023/06/01 07:51:44;;;;;;;3.47;1.70;;;;;;;;;;5090651;28;20944;-65
2023/06/01 07:54:11;;;;;;;5.40;1.80;;;;;;;;;;5090714;28;20449;-65
2023/06/01 07:56:39;;;;;;;2.67;1.90;;;;;;;;;;5090017;28;20471;-65
2023/06/01 07:59:06;;;;;;;1.93;1.30;;;;;;;;;;5090930;28;20452;-65
2023/06/01 08:01:33;;;;;;;3.03;2.00;;;;;;;;;;5090367;28;20476;-65
2023/06/01 08:04:01;;;;;;;2.40;1.60;;;;;;;;;;5090799;28;20462;-66
2023/06/01 08:06:35;;;;;;;2.50;2.00;;;;;;;;;;5090428;28;20459;-66
2023/06/01 08:09:03;;;;;;;3.37;1.80;;;;;;;;;;5091239;28;20445;-66
2023/06/01 08:11:31;;;;;;;4.20;1.60;;;;;;;;;;5090989;28;20464;-68
2023/06/01 08:13:59;;;;;;;4.30;1.90;;;;;;;;;;5091130;28;20452;-68
2023/06/01 08:16:27;;;;;;;3.07;2.10;;;;;;;;;;5090927;28;20978;-70
2023/06/01 08:18:55;;;;;;;2.60;1.77;;;;;;;;;;5090561;28;20452;-67
2023/06/01 08:21:23;;;;;;;3.00;2.00;;;;;;;;;;5090924;28;20536;-68
2023/06/01 08:23:52;;;;;;;3.73;2.00;;;;;;;;;;5090162;28;20514;-68
2023/06/01 08:26:20;;;;;;;3.70;2.00;;;14.60;99.90;;;;;;5090441;28;20460;-68
2023/06/01 08:28:51;;;;;;;3.33;1.93;;;21.40;2.00;;;;;;5089466;28;20445;-68
2023/06/01 08:31:18;;;;;;;2.97;1.60;;;21.30;1.00;;;;;;5090399;28;21024;-68
2023/06/01 08:33:45;;;;;;;6.20;2.17;;;21.30;1.00;;;;;;5089303;28;21006;-68
2023/06/01 08:36:12;;;;;;;3.07;1.43;;;21.40;1.00;;;;;;5090099;28;20444;-68
2023/06/01 08:38:40;;;;;;;3.10;2.00;;;21.70;1.00;;;;;;5089621;28;20460;-68
2023/06/01 08:41:15;;;;;;;3.57;1.97;;;21.60;1.00;;;;;;5090979;28;20455;-68
2023/06/01 08:43:44;;;;;;;3.17;2.23;;;21.60;1.00;;;;;;5089545;28;20870;-68
2023/06/01 08:46:13;;;;;;;2.83;1.90;;;21.60;1.00;;;;;;5090516;28;20444;-67
2023/06/01 08:48:41;;;;;;;3.10;2.13;;;21.70;1.00;;;;;;5089814;28;20441;-68
2023/06/01 08:51:08;;;;;;;3.47;2.20;;;21.90;1.00;;;;;;5090228;28;20454;-68
2023/06/01 08:53:36;;;;;;;3.30;2.20;;;21.90;1.00;;;;;;5088944;28;20452;-68
2023/06/01 08:56:04;;;;;;;2.30;1.50;;;;;;;;;;5090081;28;20447;-68
2023/06/01 08:58:32;;;;;;;2.37;1.87;;;;;;;;;;5090394;28;20456;-71
2023/06/01 09:01:00;;;;;;;3.57;2.07;;;;;;;;;;5089973;28;20448;-67
2023/06/01 09:03:27;;;;;;;2.60;1.73;;;;;;;;;;5090412;28;20484;-71
2023/06/01 09:05:54;;;;;;;2.30;1.80;;;;;;;;;;5089224;28;20950;-69
2023/06/01 09:08:22;;;;;;;2.83;1.97;;;;;;;;;;5090556;28;20448;-69
2023/06/01 09:10:49;;;;;;;2.37;1.97;;;;;;;;;;5092219;28;20484;-69
2023/06/01 09:13:31;;;;;;;2.43;1.80;;;;;;;;;;5094159;28;20828;-68
2023/06/01 09:16:00;;;;;;;4.70;2.70;;;;;;;;;;5093917;28;20448;-70
2023/06/01 09:18:27;;;;;;;3.00;2.13;;;;;;;;;;5094593;28;20455;-69
2023/06/01 09:20:56;;;;;;;3.27;2.73;;;;;;;;;;5094352;28;20468;-70
2023/06/01 09:23:28;;;;;;;3.87;2.30;;;;;;;;;;5094352;28;20516;-69
2023/06/01 09:26:07;;;;;;;2.67;2.07;;;;;;;;;;5094362;28;20451;-69
2023/06/01 09:28:53;;;;;;;2.70;2.23;;;;;;;;;;5093367;28;20476;-70
2023/06/01 09:31:35;;;;;;;2.77;2.13;;;;;;;;;;5093605;28;20444;-70
2023/06/01 09:34:04;;;;;;;2.90;2.20;;;;;;;;;;5080228;28;20452;-70
2023/06/01 09:36:32;;;;;;;2.63;1.90;;;;;;;;;;5092746;28;20448;-74
2023/06/01 09:39:02;;;;;;;3.27;2.37;;;;;;;;;;5094191;28;20440;-70
2023/06/01 09:41:45;;;;;;;2.97;2.20;;;;;;;;;;5092320;28;20457;-70
2023/06/01 09:44:12;;;;;;;3.30;2.37;;;;;;;;;;5090429;28;20499;-69
2023/06/01 09:46:47;;;;;;;3.20;2.17;;;;;;;;;;5091601;28;20460;-70
2023/06/01 09:49:21;;;;;;;4.27;2.40;;;;;;;;;;5093656;28;20443;-71
2023/06/01 09:51:48;;;;;;;2.80;2.10;;;;;;;;;;5088402;28;20452;-70
2023/06/01 09:54:28;;;;;;;2.80;2.23;;;;;;;;;;5087151;28;20448;-69
2023/06/01 09:56:56;;;;;;;5.43;2.20;;;;;;;;;;5092392;28;20456;-66
2023/06/01 09:59:23;;;;;;;4.37;2.40;;;;;;;;;;5084173;28;20452;-72
2023/06/01 10:01:54;;;;;;;2.50;2.00;;;;;;;;;;5092156;28;21071;-70
2023/06/01 10:04:24;;;;;;;3.10;1.87;;;;;;;;;;5089656;28;20463;-71
2023/06/01 10:06:55;;;;;;;2.70;2.20;;;;;;;;;;5092317;28;20448;-71
2023/06/01 10:09:22;;;;;;;2.53;2.30;;;;;;;;;;5093033;28;20962;-71
2023/06/01 10:11:52;;;;;;;2.63;2.30;;;;;;;;;;5092773;28;20451;-72
2023/06/01 10:14:20;;;;;;;4.67;2.67;;;;;;;;;;5093931;28;20471;-73
2023/06/01 10:16:49;;;;;;;3.03;2.53;;;;;;;;;;5086771;28;21283;-72
2023/06/01 10:19:16;;;;;;;3.73;2.37;;;;;;;;;;5089580;28;20460;-70
2023/06/01 10:21:46;;;;;;;2.00;1.80;;;;;;;;;;5086055;28;20973;-71
2023/06/01 10:24:14;;;;;;;3.70;2.50;;;;;;;;;;5093149;28;20468;-71
2023/06/01 10:26:43;;;;;;;2.30;2.10;;;;;;;;;;5091839;28;20597;-70
2023/06/01 10:29:11;;;;;;;3.17;2.43;;;;;;;;;;5088941;28;20817;-69
2023/06/01 10:31:39;;;;;;;4.20;2.50;;;;;;;;;;5090032;28;20479;-68
2023/06/01 10:34:07;;;;;;;2.90;2.10;;;;;;;;;;5093063;28;20448;-69
2023/06/01 10:36:53;;;;;;;3.13;2.30;;;;;;;;;;5091538;28;20965;-67
2023/06/01 10:39:24;;;;;;;3.67;2.30;;;;;;;;;;5092935;28;20445;-69
2023/06/01 10:41:52;;;;;;;3.10;2.10;;;;;;;;;;5092235;28;20457;-71
2023/06/01 10:44:40;;;;;;;2.70;2.00;;;;;;;;;;5089926;28;20480;-70
2023/06/01 10:47:07;;;;;;;3.17;2.20;;;;;;;;;;5081409;28;20457;-70
2023/06/01 10:49:58;;;;;;;2.97;2.50;;;;;;;;;;5095733;28;20451;-69
2023/06/01 10:52:26;;;;;;;4.30;2.73;;;;;;;;;;5086548;28;20452;-68
2023/06/01 10:54:55;;;;;;;2.70;2.10;;;;;;;;;;5092855;28;20936;-67
2023/06/01 10:57:23;;;;;;;3.13;2.47;;;;;;;;;;5077525;28;20936;-68
2023/06/01 11:00:09;;;;;;;3.73;2.60;;;;;;;;;;5092332;28;20440;-68
2023/06/01 11:02:36;;;;;;;2.40;1.87;;;;;;;;;;5091173;28;20487;-70
2023/06/01 11:05:18;;;;;;;2.50;2.23;;;;;;;;;;5081431;28;20460;-70
2023/06/01 11:07:45;;;;;;;3.30;2.60;;;;;;;;;;5090985;28;20448;-69
2023/06/01 11:10:13;;;;;;;2.80;2.50;;;;;;;;;;5092264;28;20444;-70
2023/06/01 11:13:01;;;;;;;3.27;2.47;;;;;;;;;;5090617;28;20484;-70
2023/06/01 11:15:28;;;;;;;2.37;1.90;;;;;;;;;;5091340;28;20509;-71
2023/06/01 11:17:56;;;;;;;2.37;2.17;;;;;;;;;;5092178;28;20453;-69
2023/06/01 11:20:29;;;;;;;2.53;1.80;;;;;;;;;;5092414;28;20444;-69
2023/06/01 11:22:56;;;;;;;5.30;2.70;;;;;;;;;;5092646;28;20473;-70
2023/06/01 11:25:26;;;;;;;3.47;2.53;;;;;;;;;;5092036;28;20452;-69
2023/06/01 11:27:54;;;;;;;3.00;2.40;;;;;;;;;;5086026;28;20480;-69
2023/06/01 11:30:21;;;;;;;3.20;2.20;;;;;;;;;;5091532;28;20997;-69
2023/06/01 11:32:50;;;;;;;3.10;1.83;;;;;;;;;;5084960;28;20465;-71
2023/06/01 11:35:18;;;;;;;2.57;2.00;;;;;;;;;;5091598;28;20549;-69
2023/06/01 11:37:49;;;;;;;2.60;2.00;;;;;;;;;;5091416;28;20444;-70
2023/06/01 11:40:16;;;;;;;3.50;2.30;;;;;;;;;;5087307;28;20452;-71
2023/06/01 11:42:45;;;;;;;2.80;2.03;;;;;;;;;;5089093;28;20495;-67
2023/06/01 11:45:16;;;;;;;4.87;2.50;;;;;;;;;;5091878;28;20440;-70
2023/06/01 11:47:45;;;;;;;2.63;2.10;;;;;;;;;;5089741;28;20452;-71
2023/06/01 11:50:21;;;;;;;2.73;2.53;;;;;;;;;;5091845;28;20454;-68
2023/06/01 11:52:48;;;;;;;3.43;2.43;;;;;;;;;;5079435;28;20458;-69
2023/06/01 11:55:15;;;;;;;2.57;2.30;;;;;;;;;;5083130;28;20545;-68
2023/06/01 11:57:44;;;;;;;3.20;2.33;;;;;;;;;;5075669;28;20461;-69
2023/06/01 12:00:13;;;;;;;3.03;2.40;;;;;;;;;;5090008;28;20459;-69
2023/06/01 12:02:42;;;;;;;3.60;2.60;;;;;;;;;;5087750;28;20471;-67
2023/06/01 12:05:09;;;;;;;3.17;2.23;;;21.90;1.00;;;;;;5090270;28;20859;-69
2023/06/01 12:07:45;;;;;;;5.13;2.47;;;26.90;1.00;;;;;;5088529;28;20456;-69
2023/06/01 12:10:13;;;;;;;3.70;2.43;;;26.80;1.00;;;;;;5091091;28;20445;-70
2023/06/01 12:12:40;;;;;;;2.63;2.30;;;26.70;1.00;;;;;;5090076;28;20444;-69
2023/06/01 12:15:10;;;;;;;3.00;1.93;;;26.80;1.00;;;;;;5081978;28;20445;-68
2023/06/01 12:17:49;;;;;;;4.77;2.50;;;27.00;1.00;;;;;;5082574;28;20457;-70
2023/06/01 12:20:27;;;;;;;2.80;2.10;;;26.90;1.00;;;;;;5090106;28;20463;-70
2023/06/01 12:22:55;;;;;;;2.90;2.47;;;27.00;1.00;;;;;;5081652;28;20477;-69
2023/06/01 12:25:22;;;;;;;3.87;2.50;;;27.20;1.00;;;;;;5094595;28;20457;-70
2023/06/01 12:28:01;;;;;;;3.33;1.90;;;27.10;1.00;;;;;;5088361;28;20554;-69
2023/06/01 12:30:29;;;;;;;4.20;2.23;;;27.10;1.00;;;;;;5089859;28;20440;-70
2023/06/01 12:32:56;;;;;;;3.17;2.43;;;27.40;1.00;;;;;;5090653;28;20464;-70
2023/06/01 12:35:23;;;;;;;2.80;2.17;;;27.40;1.00;;;;;;5090151;28;20522;-70
2023/06/01 12:38:04;;;;;;;3.30;2.17;;;27.50;1.00;;;;;;5090084;28;20814;-69
2023/06/01 12:40:31;;;;;;;2.27;1.80;;;;;;;;;;5089911;28;21018;-69
2023/06/01 12:42:58;;;;;;;3.40;2.17;;;;;;;;;;5091130;28;20483;-70
2023/06/01 12:45:26;;;;;;;2.50;1.90;;;;;;;;;;5094773;28;20478;-67
2023/06/01 12:47:54;;;;;;;3.23;2.07;;;;;;;;;;5087580;28;20463;-67
2023/06/01 12:50:21;;;;;;;2.90;2.23;;;;;;;;;;5095142;28;20448;-66
2023/06/01 12:52:48;;;;;;;3.37;2.50;;;;;;;;;;5090430;28;20461;-67
2023/06/01 12:55:17;;;;;;;3.17;2.10;;;;;;;;;;5074309;28;20453;-67
2023/06/01 12:57:44;;;;;;;3.83;2.63;;;;;;;;;;5092233;28;20459;-68
2023/06/01 13:00:12;;;;;;;3.10;2.07;;;;;;;;;;5093724;28;20463;-69
2023/06/01 13:02:39;;;;;;;2.50;2.17;;;;;;;;;;5093471;28;20448;-67
2023/06/01 13:05:08;;;;;;;3.10;2.27;;;;;;;;;;5092662;28;20488;-69
2023/06/01 13:07:35;;;;;;;2.83;2.50;;;;;;;;;;5093594;28;20973;-71
2023/06/01 13:10:03;;;;;;;2.87;2.13;;;;;;;;;;5094585;28;20852;-71
2023/06/01 13:12:31;;;;;;;3.13;2.33;;;;;;;;;;5094173;28;20444;-71
2023/06/01 13:14:58;;;;;;;3.20;2.37;;;;;;;;;;5094939;28;21016;-73
2023/06/01 13:17:26;;;;;;;2.73;2.20;;;;;;;;;;5096897;28;20456;-66
2023/06/01 13:19:53;;;;;;;2.80;2.13;;;;;;;;;;5095537;28;20450;-71
2023/06/01 13:22:22;;;;;;;3.03;2.40;;;;;;;;;;5095403;28;20444;-71
2023/06/01 13:24:49;;;;;;;2.40;2.10;;;;;;;;;;5079882;28;20475;-72
2023/06/01 13:27:16;;;;;;;4.60;2.60;;;;;;;;;;5091349;28;20487;-72
2023/06/01 13:29:43;;;;;;;2.67;2.40;;;;;;;;;;5078942;28;20457;-69
2023/06/01 13:32:11;;;;;;;2.97;2.20;;;;;;;;;;5101445;28;20458;-66
2023/06/01 13:34:38;;;;;;;2.10;1.90;;;;;;;;;;5095884;28;20543;-67
2023/06/01 13:37:05;;;;;;;2.23;2.03;;;;;;;;;;5093654;28;20949;-69
2023/06/01 13:39:34;;;;;;;3.00;2.10;;;;;;;;;;5097868;28;20448;-68
2023/06/01 13:42:02;;;;;;;3.50;2.40;;;;;;;;;;5100343;28;20459;-72
2023/06/01 13:44:29;;;;;;;3.20;2.63;;;;;;;;;;5088557;28;20484;-71
2023/06/01 13:46:56;;;;;;;2.67;2.30;;;;;;;;;;5093997;28;20821;-69
2023/06/01 13:49:23;;;;;;;2.33;2.00;;;;;;;;;;5091905;28;20468;-69
2023/06/01 13:51:50;;;;;;;2.93;2.33;;;;;;;;;;5093031;28;20448;-68
2023/06/01 13:54:17;;;;;;;3.33;2.70;;;;;;;;;;5092479;28;20455;-70
2023/06/01 13:56:46;;;;;;;2.80;2.17;;;;;;;;;;5091764;28;20870;-69
2023/06/01 13:59:13;;;;;;;2.53;1.83;;;;;;;;;;5095885;28;20462;-68
2023/06/01 14:01:40;;;;;;;2.60;2.10;;;;;;;;;;5092686;28;20452;-69
2023/06/01 14:04:07;;;;;;;2.27;1.90;;;;;;;;;;5093533;28;20484;-69
2023/06/01 14:06:35;;;;;;;3.23;2.30;;;;;;;;;;5092931;28;20468;-69
2023/06/01 14:09:02;;;;;;;2.67;1.83;;;;;;;;;;5079565;28;20455;-69
2023/06/01 14:11:29;;;;;;;3.30;1.53;;;27.60;1.00;;;;;;5093418;28;20530;-69
2023/06/01 14:13:57;;;;;;;2.45;2.25;;;;;;;;;;5093388;28;20205;-68
2023/06/01 14:16:24;;;;;;;3.72;2.28;;;;;;;;;;5091862;28;20200;-72
2023/06/01 14:18:52;;;;;;;2.10;1.90;;;;;;;;;;5090575;28;20615;-66
2023/06/01 14:21:19;;;;;;;3.83;2.33;;;;;;;;;;5092610;28;20198;-66
2023/06/01 14:23:47;;;;;;;2.50;1.70;;;;;;;;;;5092578;28;20739;-69
2023/06/01 14:26:14;;;;;;;2.80;1.88;;;;;;;;;;5092001;28;20587;-72
2023/06/01 14:28:41;;;;;;;2.53;1.70;;;30.40;1.00;;;;;;5093052;28;20701;-69
2023/06/01 14:31:09;;;;;;;2.30;2.08;;;31.80;1.00;;;;;;5092463;28;20228;-69
2023/06/01 14:33:36;;;;;;;2.55;1.88;;;32.00;1.00;;;;;;5099279;28;20281;-70
2023/06/01 14:36:04;;;;;;;2.40;2.10;;;;;;;;;;5090590;28;20198;-70
2023/06/01 14:38:31;;;;;;;1.63;1.30;;;32.10;1.00;;;;;;5101427;28;20220;-70